WC StCyr

Date de la prise de vue : 15/04/2024 22:57:44


Et voilĂ  les METAR et TAF :
2024/04/16 01:30 LFPN 160130Z AUTO 25010KT 9999 FEW027 SCT033 BKN140 05/04 Q1013
2024/04/15 17:30 TAF TAF LFPN 151710Z 1517/1524 CNL